Details for Norwegian Air Shuttle at ENVA




Go Back


Latest METAR
Local Time

ENVA 241320Z VRB02KT 9999 FEW045 SCT060 BKN080 M02/M06 Q1035 NOSIG RMK WIND 670FT 08005KT

24/02/2018, 14:41:33

Description
Results
Norwegian Air Shuttle Logo
Number of Pilots based at ENVA
0 Pilots Based here
Number of Norwegian Air Shuttle Flights Departed from ENVA
0 Flights Departed
Number of Norwegian Air Shuttle Flights Arrived at ENVA
1 Flights Arrived
Number of Norwegian Air Shuttle Schedules Departing from ENVA
35 Schedules
Number of Norwegian Air Shuttle Schedules Arriving at ENVA
33 Schedules
Number of Norwegian Air Shuttle Schedules Departing from ENVA availible today
8 Schedules Today
Number of Norwegian Air Shuttle Schedules Arriving at ENVA availible today
8 Schedules Today
Average Landing Rate at ENVA
-67 fpm
Norwegian Air Shuttle Average Landing Rate at ENVA
-67 fpm
Total Fuel Purchased at ENVA by Norwegian Air Shuttle
0.00 kgs / 0.00 lbs

Pilots Based at ENVA


Pilot ID
Pilot Name
Pilot Rank
No. of Flights
No. of Flying Hours
There are no pilots assigned to this hub!   Will you be the first?
Content